Time;durP1;ratioP1;P1;durP2;ratioP2;P2;SDS_P1;SDS_P2;PMS_P1;PMS_P2;Temp;Humidity;BMP_temperature;BMP_pressure;BME280_temperature;BME280_humidity;BME280_pressure;Samples;Min_cycle;Max_cycle;Signal;HPM_P1;HPM_P2
2023/08/02 00:01:01;;;;;;;8.13;1.42;;;;;;;15.91;100.00;99937.59;5045902;28;20523;-70
2023/08/02 00:03:26;;;;;;;5.07;1.50;;;;;;;15.87;100.00;99929.38;5048843;28;20044;-71
2023/08/02 00:05:53;;;;;;;5.68;1.92;;;;;;;15.84;100.00;99932.41;5027688;28;20224;-71
2023/08/02 00:08:19;;;;;;;3.83;1.58;;;;;;;15.82;100.00;99929.19;5026314;28;20025;-70
2023/08/02 00:10:44;;;;;;;9.82;1.48;;;;;;;15.84;100.00;99934.22;5027850;28;20091;-70
2023/08/02 00:13:10;;;;;;;4.28;1.75;;;;;;;15.79;100.00;99932.25;5025344;28;20036;-71
2023/08/02 00:15:39;;;;;;;3.78;1.25;;;;;;;15.76;100.00;99930.88;5027578;28;20083;-71
2023/08/02 00:18:04;;;;;;;4.95;1.92;;;;;;;15.80;100.00;99922.59;5023932;28;20016;-70
2023/08/02 00:20:30;;;;;;;5.82;1.77;;;;;;;15.75;100.00;99923.22;5045457;28;20035;-71
2023/08/02 00:22:55;;;;;;;8.48;1.70;;;;;;;15.81;100.00;99919.75;5043898;28;20124;-70
2023/08/02 00:25:22;;;;;;;4.57;1.40;;;;;;;15.70;100.00;99915.19;5022904;28;21222;-70
2023/08/02 00:27:47;;;;;;;5.47;1.45;;;;;;;15.66;100.00;99909.56;4999351;28;20049;-70
2023/08/02 00:30:13;;;;;;;9.65;2.08;;;;;;;15.70;100.00;99915.19;5022044;28;20091;-70
2023/08/02 00:32:48;;;;;;;4.57;1.55;;;;;;;15.68;100.00;99917.22;5023634;28;20053;-69
2023/08/02 00:35:14;;;;;;;3.88;1.30;;;;;;;15.69;100.00;99914.38;5013807;28;20567;-70
2023/08/02 00:37:40;;;;;;;4.75;1.40;;;;;;;15.68;100.00;99910.16;5039284;28;20072;-70
2023/08/02 00:40:07;;;;;;;5.70;1.40;;;;;;;15.61;100.00;99903.38;5042955;28;20087;-70
2023/08/02 00:42:32;;;;;;;4.70;1.42;;;;;;;15.55;100.00;99908.41;5046964;28;20033;-70
2023/08/02 00:44:57;;;;;;;7.28;1.40;;;;;;;15.52;100.00;99900.19;5029970;28;20415;-70
2023/08/02 00:47:24;;;;;;;5.25;1.60;;;;;;;15.52;100.00;99901.03;5045520;28;20036;-70
2023/08/02 00:49:50;;;;;;;5.72;1.55;;;;;;;15.49;100.00;99893.59;5051864;23;20059;-73
2023/08/02 00:52:16;;;;;;;4.75;1.65;;;;;;;15.48;100.00;99889.41;5025830;28;20025;-73
2023/08/02 00:54:42;;;;;;;7.80;1.65;;;;;;;15.49;100.00;99890.19;5013864;28;20037;-72
2023/08/02 00:57:09;;;;;;;4.70;1.73;;;;;;;15.44;100.00;99892.63;5032696;28;20056;-73
2023/08/02 00:59:41;;;;;;;7.70;1.75;;;;;;;15.50;100.00;99899.63;5026934;28;20518;-73
2023/08/02 01:02:07;;;;;;;6.07;1.73;;;;;;;15.45;100.00;99892.41;5029773;28;20615;-72
2023/08/02 01:04:35;;;;;;;3.95;1.67;;;;;;;15.42;100.00;99889.41;5030455;28;20036;-72
2023/08/02 01:07:19;;;;;;;9.00;1.88;;;;;;;15.41;100.00;99880.78;5029565;28;20141;-72
2023/08/02 01:09:54;;;;;;;5.80;2.30;;;;;;;15.45;100.00;99886.41;5029332;28;20037;-72
2023/08/02 01:12:22;;;;;;;4.78;1.58;;;;;;;15.44;100.00;99885.56;5028023;28;20091;-72
2023/08/02 01:14:52;;;;;;;7.68;1.95;;;;;;;15.42;100.00;99877.16;5027889;28;20277;-72
2023/08/02 01:17:18;;;;;;;5.68;2.30;;;;;;;15.44;100.00;99884.78;5009896;28;20114;-72
2023/08/02 01:19:43;;;;;;;4.93;1.77;;;;;;;15.43;100.00;99867.53;5010378;28;20033;-73
2023/08/02 01:22:09;;;;;;;7.32;1.90;;;;;;;15.44;100.00;99851.63;5026062;28;20037;-72
2023/08/02 01:24:36;;;;;;;8.10;1.98;;;;;;;15.48;100.00;99854.63;5031591;28;21246;-73
2023/08/02 01:27:07;;;;;;;9.90;2.15;;;;;;;15.44;100.00;99848.22;5016331;28;20372;-72
2023/08/02 01:29:36;;;;;;;5.88;2.17;;;;;;;15.52;100.00;99850.56;5029694;28;20040;-72
2023/08/02 01:32:02;;;;;;;3.10;1.60;;;;;;;15.46;100.00;99843.56;5016009;28;20578;-73
2023/08/02 01:34:29;;;;;;;5.80;2.10;;;;;;;15.50;100.00;99853.41;5033749;28;20394;-73
2023/08/02 01:36:55;;;;;;;5.38;1.83;;;;;;;15.52;100.00;99840.94;5030757;28;20040;-72
2023/08/02 01:39:20;;;;;;;8.32;2.03;;;;;;;15.49;100.00;99843.97;5025917;28;20025;-73
2023/08/02 01:41:46;;;;;;;4.05;1.85;;;;;;;15.49;100.00;99845.78;5026784;28;20049;-72
2023/08/02 01:44:11;;;;;;;8.40;2.17;;;;;;;15.50;100.00;99832.50;5029178;28;20083;-73
2023/08/02 01:46:36;;;;;;;8.95;2.28;;;;;;;15.48;100.00;99834.53;5015518;28;20511;-72
2023/08/02 01:49:02;;;;;;;7.68;1.95;;;;;;;15.57;100.00;99832.44;5014353;28;20029;-74
2023/08/02 01:51:27;;;;;;;7.72;2.20;;;;;;;15.54;100.00;99836.28;5027260;28;20033;-72
2023/08/02 01:53:53;;;;;;;8.05;2.67;;;;;;;15.50;100.00;99826.47;5012662;28;20045;-73
2023/08/02 01:56:18;;;;;;;8.70;1.88;;;;;;;15.50;100.00;99826.47;5025812;28;20492;-72
2023/08/02 01:58:44;;;;;;;6.80;2.03;;;;;;;15.56;100.00;99825.66;5015469;28;20110;-73
2023/08/02 02:01:09;;;;;;;7.10;2.40;;;;;;;15.56;100.00;99825.66;5027003;28;20025;-73
2023/08/02 02:03:35;;;;;;;12.43;2.15;;;;;;;15.49;100.00;99810.00;5008688;28;20025;-72
2023/08/02 02:06:00;;;;;;;9.32;2.78;;;;;;;15.54;100.00;99806.75;5028732;28;20037;-72
2023/08/02 02:08:26;;;;;;;8.23;2.22;;;;;;;15.64;100.00;99791.41;5029668;28;20063;-72
2023/08/02 02:10:53;;;;;;;6.80;2.42;;;;;;;15.53;100.00;99795.50;5024758;28;20091;-71
2023/08/02 02:13:20;;;;;;;10.00;2.15;;;;;;;15.57;100.00;99791.44;5026601;28;20121;-71
2023/08/02 02:15:45;;;;;;;6.97;2.10;;;;;;;15.60;100.00;99787.63;5026614;28;20479;-71
2023/08/02 02:18:11;;;;;;;6.13;2.30;;;;;;;15.60;100.00;99779.78;5031645;28;20016;-71
2023/08/02 02:20:36;;;;;;;6.65;2.20;;;;;;;15.55;100.00;99790.06;5026832;28;20034;-71
2023/08/02 02:23:02;;;;;;;7.18;2.20;;;;;;;15.58;100.00;99777.38;5010092;28;20025;-72
2023/08/02 02:25:27;;;;;;;11.30;3.35;;;;;;;15.61;100.00;99772.75;5026062;28;20511;-72
2023/08/02 02:27:53;;;;;;;8.32;2.38;;;;;;;15.55;100.00;99772.56;5032636;28;20028;-72
2023/08/02 02:30:18;;;;;;;7.93;2.85;;;;;;;15.56;100.00;99763.72;5028985;28;20625;-72
2023/08/02 02:32:44;;;;;;;9.10;2.65;;;;;;;15.59;100.00;99749.44;5027317;28;20132;-72
2023/08/02 02:35:14;;;;;;;6.90;2.20;;;;;;;15.57;100.00;99752.25;5005651;28;20026;-72
2023/08/02 02:37:40;;;;;;;7.05;2.08;;;;;;;15.58;100.00;99753.88;5028908;28;20512;-71
2023/08/02 02:40:06;;;;;;;9.25;2.70;;;;;;;15.66;100.00;99744.94;5030352;28;20171;-71
2023/08/02 02:42:32;;;;;;;4.63;2.10;;;;;;;15.63;100.00;99734.91;5025097;28;20488;-72
2023/08/02 02:44:57;;;;;;;6.53;2.22;;;;;;;15.69;100.00;99731.47;5013284;28;20033;-72
2023/08/02 02:47:23;;;;;;;4.85;2.10;;;;;;;15.65;100.00;99714.63;5028845;28;20056;-72
2023/08/02 02:49:48;;;;;;;7.88;2.90;;;;;;;15.70;100.00;99712.13;5030466;28;20042;-71
2023/08/02 02:52:13;;;;;;;10.38;2.05;;;;;;;15.70;100.00;99701.69;5031025;28;20041;-72
2023/08/02 02:54:39;;;;;;;10.32;2.33;;;;;;;15.67;100.00;99699.53;5024047;28;20033;-72
2023/08/02 02:57:05;;;;;;;9.70;2.78;;;;;;;15.67;100.00;99703.94;5014097;28;20037;-72
2023/08/02 02:59:32;;;;;;;7.75;2.15;;;;;;;15.64;100.00;99707.78;5024350;28;20487;-72
2023/08/02 03:01:58;;;;;;;7.63;2.40;;;;;;;15.69;100.00;99699.28;5024971;28;20312;-72
2023/08/02 03:04:24;;;;;;;11.95;2.47;;;;;;;15.65;100.00;99703.34;5026803;28;20037;-72
2023/08/02 03:06:51;;;;;;;6.35;2.40;;;;;;;15.61;100.00;99710.81;5023157;28;20041;-72
2023/08/02 03:09:16;;;;;;;8.48;2.40;;;;;;;15.62;100.00;99709.03;5033119;28;20082;-72
2023/08/02 03:11:41;;;;;;;4.93;2.33;;;;;;;15.63;100.00;99705.38;5025597;28;20066;-72
2023/08/02 03:14:07;;;;;;;8.57;2.92;;;;;;;15.64;100.00;99702.56;5025528;28;20097;-72
2023/08/02 03:16:32;;;;;;;6.40;2.28;;;;;;;15.67;100.00;99704.75;5020908;28;20091;-72
2023/08/02 03:18:58;;;;;;;5.35;2.13;;;;;;;15.68;100.00;99698.50;5031974;28;20462;-72
2023/08/02 03:21:23;;;;;;;6.38;2.20;;;;;;;15.70;100.00;99699.06;5028642;28;20033;-72
2023/08/02 03:23:49;;;;;;;5.25;1.90;;;;;;;15.68;100.00;99698.50;5025809;28;20033;-72
2023/08/02 03:26:14;;;;;;;7.57;2.30;;;;;;;15.69;100.00;99679.19;5030212;28;20037;-72
2023/08/02 03:28:39;;;;;;;12.75;2.70;;;;;;;15.69;100.00;99673.97;5030178;28;20037;-72
2023/08/02 03:31:05;;;;;;;12.75;3.03;;;;;;;15.69;100.00;99673.16;5023741;28;20056;-72
2023/08/02 03:33:30;;;;;;;9.60;3.50;;;;;;;15.68;100.00;99663.72;5028270;28;21349;-72
2023/08/02 03:35:56;;;;;;;9.02;2.80;;;;;;;15.71;100.00;99656.25;5027535;28;20044;-72
2023/08/02 03:38:21;;;;;;;11.98;2.80;;;;;;;15.68;100.00;99651.47;5027259;28;20025;-72
2023/08/02 03:40:47;;;;;;;8.15;2.47;;;;;;;15.71;100.00;99637.97;5026682;28;20042;-72
2023/08/02 03:43:12;;;;;;;9.93;2.80;;;;;;;15.60;100.00;99624.84;5027596;28;20582;-72
2023/08/02 03:45:37;;;;;;;10.75;2.60;;;;;;;15.62;100.00;99609.75;5025389;28;20046;-72
2023/08/02 03:48:03;;;;;;;11.93;2.63;;;;;;;15.70;100.00;99596.38;5028173;28;20022;-72
2023/08/02 03:50:29;;;;;;;9.77;2.85;;;;;;;15.61;100.00;99603.69;5026324;28;20040;-72
2023/08/02 03:52:54;;;;;;;5.75;2.13;;;;;;;15.47;100.00;99621.34;5033124;28;20372;-72
2023/08/02 03:55:20;;;;;;;9.13;2.97;;;;;;;15.45;100.00;99631.19;5024530;28;20403;-72
2023/08/02 03:57:45;;;;;;;8.75;2.80;;;;;;;15.50;100.00;99633.97;5025418;28;20080;-72
2023/08/02 04:00:11;;;;;;;9.68;2.28;;;;;;;15.54;100.00;99635.13;5033598;28;20025;-71
2023/08/02 04:02:39;;;;;;;8.27;2.58;;;;;;;15.46;100.00;99637.22;5028344;28;20041;-72
2023/08/02 04:05:05;;;;;;;7.18;2.80;;;;;;;15.50;100.00;99635.75;5027421;28;20037;-72
2023/08/02 04:07:30;;;;;;;8.07;2.28;;;;;;;15.49;100.00;99626.34;5023506;28;20041;-72
2023/08/02 04:09:56;;;;;;;7.20;2.35;;;;;;;15.52;100.00;99618.06;5026672;28;20037;-72
2023/08/02 04:12:21;;;;;;;7.00;2.03;;;;;;;15.60;100.00;99609.16;5025128;28;20037;-72
2023/08/02 04:14:47;;;;;;;6.32;2.50;;;;;;;15.49;100.00;99608.06;5027926;28;20038;-72
2023/08/02 04:17:12;;;;;;;6.63;2.00;;;;;;;15.50;100.00;99602.63;5025182;28;20040;-72
2023/08/02 04:19:37;;;;;;;5.07;1.83;;;;;;;15.43;100.00;99607.13;5025442;28;20076;-72
2023/08/02 04:22:03;;;;;;;3.50;1.50;;;;;;;15.38;100.00;99599.13;5028162;28;20044;-71
2023/08/02 04:24:30;;;;;;;6.30;2.17;;;;;;;15.40;100.00;99591.06;5026618;28;20032;-72
2023/08/02 04:26:56;;;;;;;4.78;1.73;;;;;;;15.47;100.00;99576.13;5028365;28;20518;-72
2023/08/02 04:29:21;;;;;;;4.00;1.40;;;;;;;15.47;100.00;99563.88;5031669;28;20029;-72
2023/08/02 04:31:47;;;;;;;5.40;1.80;;;;;;;15.39;100.00;99561.56;5030283;28;20045;-73
2023/08/02 04:34:12;;;;;;;3.25;1.48;;;;;;;15.43;100.00;99554.09;5036392;28;20427;-72
2023/08/02 04:36:37;;;;;;;6.68;1.45;;;;;;;15.37;100.00;99542.69;5027699;28;20083;-73
2023/08/02 04:39:04;;;;;;;4.70;1.40;;;;;;;15.30;100.00;99534.91;5030718;28;20083;-71
2023/08/02 04:41:29;;;;;;;6.40;1.50;;;;;;;15.35;100.00;99519.41;5031769;28;20041;-72
2023/08/02 04:43:55;;;;;;;4.65;2.42;;;;;;;15.26;100.00;99509.47;5031282;28;20120;-71
2023/08/02 04:46:22;;;;;;;2.38;1.60;;;;;;;15.22;100.00;99511.72;5028640;28;20123;-72
2023/08/02 04:48:47;;;;;;;4.25;1.55;;;;;;;15.29;100.00;99499.34;5032711;28;20060;-71
2023/08/02 04:51:12;;;;;;;3.22;1.60;;;;;;;15.17;100.00;99491.47;5029961;28;20041;-71
2023/08/02 04:53:38;;;;;;;3.97;1.70;;;;;;;15.26;100.00;99480.75;5030744;28;20045;-72
2023/08/02 04:56:08;;;;;;;5.47;2.05;;;;;;;15.25;100.00;99479.94;5031704;28;20096;-73
2023/08/02 04:58:34;;;;;;;4.18;1.70;;;;;;;15.34;100.00;99465.56;5033269;28;20043;-73
2023/08/02 05:01:04;;;;;;;4.82;1.85;;;;;;;15.32;100.00;99472.03;5030786;28;20176;-71
2023/08/02 05:03:30;;;;;;;5.10;2.00;;;;;;;15.29;100.00;99475.84;5032648;28;20037;-72
2023/08/02 05:06:03;;;;;;;6.80;2.08;;;;;;;15.38;100.00;99463.31;5028798;28;20037;-72
2023/08/02 05:08:30;;;;;;;4.03;2.10;;;;;;;15.34;100.00;99459.56;5027537;28;20030;-73
2023/08/02 05:10:56;;;;;;;5.63;2.40;;;;;;;15.28;100.00;99450.78;5032584;28;20036;-72
2023/08/02 05:13:25;;;;;;;4.22;1.85;;;;;;;15.31;100.00;99439.09;5028563;28;20030;-72
2023/08/02 05:15:51;;;;;;;4.30;2.10;;;;;;;15.43;100.00;99433.94;5029386;28;20033;-72
2023/08/02 05:18:17;;;;;;;7.35;2.78;;;;;;;15.39;100.00;99430.97;5029688;28;20029;-69
2023/08/02 05:20:43;;;;;;;7.13;2.55;;;;;;;15.32;100.00;99425.81;5027585;28;20407;-70
2023/08/02 05:23:08;;;;;;;7.28;2.22;;;;;;;15.26;100.00;99421.47;5026978;28;20167;-69
2023/08/02 05:25:34;;;;;;;9.45;2.58;;;;;;;15.35;100.00;99414.94;5024574;28;20041;-70
2023/08/02 05:28:00;;;;;;;8.50;2.70;;;;;;;15.29;100.00;99410.56;5028409;28;20056;-70
2023/08/02 05:30:27;;;;;;;10.57;3.60;;;;;;;15.24;100.00;99412.25;5029790;28;20399;-71
2023/08/02 05:32:54;;;;;;;10.90;3.40;;;;;;;15.26;100.00;99410.25;5025837;28;20096;-71
2023/08/02 05:35:20;;;;;;;7.05;3.10;;;;;;;15.25;100.00;99398.97;5030460;28;20088;-70
2023/08/02 05:37:45;;;;;;;9.30;3.15;;;;;;;15.28;100.00;99400.38;5027603;28;20029;-71
2023/08/02 05:40:11;;;;;;;8.25;3.58;;;;;;;15.19;100.00;99403.28;5030149;28;20029;-70
2023/08/02 05:42:36;;;;;;;11.40;3.67;;;;;;;15.23;100.00;99397.63;5027728;28;20045;-72
2023/08/02 05:45:02;;;;;;;10.48;3.53;;;;;;;15.23;100.00;99395.00;5023261;28;20025;-70
2023/08/02 05:47:28;;;;;;;8.70;3.65;;;;;;;15.19;100.00;99385.00;5026968;28;20089;-69
2023/08/02 05:49:53;;;;;;;8.52;3.40;;;;;;;15.18;100.00;99386.03;5026497;28;20034;-70
2023/08/02 05:52:19;;;;;;;8.25;3.53;;;;;;;15.28;100.00;99371.66;5024945;28;20039;-75
2023/08/02 05:54:44;;;;;;;9.52;4.63;;;;;;;15.23;100.00;99368.91;5028813;28;21395;-70
2023/08/02 05:57:10;;;;;;;7.60;3.85;;;;;;;15.18;100.00;99366.94;5012564;28;20118;-71
2023/08/02 05:59:37;;;;;;;10.25;4.65;;;;;;;15.23;100.00;99363.69;5026811;28;20120;-71
2023/08/02 06:02:07;;;;;;;9.07;4.85;;;;;;;15.18;100.00;99362.53;5028644;28;20037;-70
2023/08/02 06:04:38;;;;;;;11.45;4.57;;;;;;;15.16;100.00;99356.72;5023525;28;20038;-71
2023/08/02 06:07:04;;;;;;;13.93;5.53;;;;;;;15.19;100.00;99353.66;5019175;28;20037;-71
2023/08/02 06:09:30;;;;;;;14.35;5.22;;;;;;;15.29;100.00;99354.94;5025737;28;20041;-71
2023/08/02 06:11:56;;;;;;;8.95;5.18;;;;;;;15.25;100.00;99354.59;5032287;28;20036;-72
2023/08/02 06:14:21;;;;;;;11.88;5.43;;;;;;;15.22;100.00;99352.44;5029066;28;20037;-72
2023/08/02 06:16:47;;;;;;;16.50;5.30;;;;;;;15.30;100.00;99349.50;5029523;28;20116;-71
2023/08/02 06:19:13;;;;;;;12.35;5.82;;;;;;;15.34;100.00;99332.38;5023718;28;20052;-70
2023/08/02 06:21:38;;;;;;;14.77;5.72;;;;;;;15.23;100.00;99335.75;5026641;28;20048;-70
2023/08/02 06:24:04;;;;;;;12.63;6.28;;;;;;;15.26;100.00;99329.31;5031302;28;20036;-71
2023/08/02 06:26:29;;;;;;;11.02;5.30;;;;;;;15.28;100.00;99322.81;5029781;28;20077;-72
2023/08/02 06:28:55;;;;;;;18.05;6.07;;;;;;;15.31;100.00;99305.91;5031337;28;20084;-73
2023/08/02 06:31:21;;;;;;;12.05;5.45;;;;;;;15.27;100.00;99297.72;5027478;28;20030;-71
2023/08/02 06:33:46;;;;;;;10.10;5.30;;;;;;;15.33;100.00;99298.66;5028339;28;20407;-72
2023/08/02 06:36:12;;;;;;;14.45;6.53;;;;;;;15.27;100.00;99295.13;5026092;28;20041;-71
2023/08/02 06:38:37;;;;;;;14.45;5.78;;;;;;;15.29;100.00;99281.84;5027121;28;20435;-70
2023/08/02 06:41:03;;;;;;;13.05;6.32;;;;;;;15.33;100.00;99272.53;5029576;28;20077;-71
2023/08/02 06:43:29;;;;;;;15.90;5.38;;;;;;;15.38;100.00;99265.63;5030303;28;20037;-71
2023/08/02 06:45:54;;;;;;;16.58;6.47;;;;;;;15.32;100.00;99263.13;5029609;28;21720;-70
2023/08/02 06:48:23;;;;;;;16.20;6.57;;;;;;;15.42;100.00;99244.28;5029609;28;20084;-70
2023/08/02 06:50:49;;;;;;;12.70;6.18;;;;;;;15.31;100.00;99238.00;5026640;28;20071;-72
2023/08/02 06:53:14;;;;;;;8.27;4.90;;;;;;;15.35;100.00;99232.13;5031520;28;20038;-72
2023/08/02 06:55:40;;;;;;;15.25;5.82;;;;;;;15.32;100.00;99231.78;5033486;28;20041;-72
2023/08/02 06:58:05;;;;;;;10.32;5.13;;;;;;;15.36;100.00;99225.09;5027114;28;20036;-71
2023/08/02 07:00:32;;;;;;;10.15;6.30;;;;;;;15.38;100.00;99208.16;5027547;28;20044;-73
2023/08/02 07:03:02;;;;;;;8.57;4.78;;;;;;;15.34;100.00;99207.03;5022801;28;20076;-71
2023/08/02 07:05:31;;;;;;;8.20;5.15;;;;;;;15.37;100.00;99205.81;5024637;28;20112;-70
2023/08/02 07:07:59;;;;;;;10.82;5.60;;;;;;;15.43;100.00;99201.50;5028718;28;20025;-73
2023/08/02 07:10:25;;;;;;;9.43;4.50;;;;;;;15.46;100.00;99191.34;5025655;28;20041;-70
2023/08/02 07:12:51;;;;;;;10.13;5.50;;;;;;;15.45;100.00;99189.00;5023974;28;21343;-69
2023/08/02 07:15:17;;;;;;;9.95;4.35;;;;;;;15.47;100.00;99184.34;5025980;28;20038;-70
2023/08/02 07:17:44;;;;;;;10.45;4.93;;;;;;;15.56;100.00;99175.94;5025886;28;20037;-73
2023/08/02 07:20:10;;;;;;;10.05;4.75;;;;;;;15.63;100.00;99173.19;5025904;28;20503;-71
2023/08/02 07:22:36;;;;;;;11.00;5.35;;;;;;;15.64;100.00;99150.50;5027181;28;20037;-70
2023/08/02 07:25:02;;;;;;;8.63;4.45;;;;;;;15.65;100.00;99144.22;5023521;28;20424;-71
2023/08/02 07:27:27;;;;;;;7.60;4.43;;;;;;;15.80;100.00;99133.31;5022951;28;20048;-71
2023/08/02 07:29:53;;;;;;;10.30;5.55;;;;;;;15.91;100.00;99127.28;5025842;28;20077;-71
2023/08/02 07:32:19;;;;;;;9.57;4.80;;;;;;;15.93;100.00;99122.63;5025525;28;21225;-71
2023/08/02 07:34:44;;;;;;;7.95;4.53;;;;;;;15.91;100.00;99120.22;5027366;28;20041;-70
2023/08/02 07:37:09;;;;;;;9.52;4.10;;;;;;;15.88;100.00;99106.81;5025776;28;20092;-71
2023/08/02 07:39:36;;;;;;;9.50;4.75;;;;;;;16.02;100.00;99110.78;5024387;28;20041;-71
2023/08/02 07:42:02;;;;;;;8.02;4.15;;;;;;;16.05;100.00;99101.66;5023593;28;20048;-70
2023/08/02 07:44:27;;;;;;;7.93;4.30;;;;;;;16.00;100.00;99098.97;5025843;28;20496;-71
2023/08/02 07:46:53;;;;;;;6.40;4.45;;;;;;;15.98;100.00;99096.59;5024279;28;20192;-70
2023/08/02 07:49:18;;;;;;;7.70;4.00;;;;;;;16.08;100.00;99081.06;5026311;28;20044;-71
2023/08/02 07:51:44;;;;;;;10.73;4.47;;;;;;;16.15;100.00;99076.50;5021839;28;20045;-69
2023/08/02 07:54:09;;;;;;;7.35;4.15;;;;;;;16.17;100.00;99073.66;5025392;28;20030;-69
2023/08/02 07:56:35;;;;;;;8.77;4.35;;;;;;;16.31;100.00;99068.94;5024121;28;20041;-70
2023/08/02 07:59:00;;;;;;;11.77;4.35;;;;;;;16.31;100.00;99072.34;5028344;28;20037;-70
2023/08/02 08:01:26;;;;;;;8.60;4.45;;;;;;;16.35;100.00;99064.84;5022997;28;20037;-69
2023/08/02 08:03:51;;;;;;;6.93;3.83;;;;;;;16.40;100.00;99062.28;5024597;28;20048;-70
2023/08/02 08:06:20;;;;;;;8.75;3.70;;;;;;;16.44;100.00;99060.78;5024095;28;20042;-69
2023/08/02 08:08:46;;;;;;;7.78;4.55;;;;;;;16.46;100.00;99044.84;5023135;28;20034;-69
2023/08/02 08:11:12;;;;;;;6.40;3.20;;;;;;;16.50;100.00;99044.16;5025284;28;20033;-69
2023/08/02 08:13:38;;;;;;;7.65;4.20;;;;;;;16.55;100.00;99048.66;5028874;28;20037;-69
2023/08/02 08:16:03;;;;;;;7.30;3.95;;;;;;;16.58;100.00;99045.59;5026876;28;20044;-70
2023/08/02 08:18:31;;;;;;;5.63;3.38;;;;;;;16.54;100.00;99045.25;5027892;28;20120;-71
2023/08/02 08:20:56;;;;;;;5.75;2.80;;;;;;;16.53;100.00;99041.03;5029342;28;20041;-71
2023/08/02 08:23:22;;;;;;;11.70;3.50;;;;;;;16.57;100.00;99041.38;5027537;28;20030;-69
2023/08/02 08:25:47;;;;;;;7.60;3.20;;;;;;;16.64;100.00;99036.78;5033183;28;20033;-70
2023/08/02 08:28:13;;;;;;;6.90;3.05;;;;;;;16.65;100.00;99043.59;5030532;28;20504;-70
2023/08/02 08:30:38;;;;;;;6.80;3.45;;;;;;;16.73;100.00;99035.34;5030392;28;20491;-69
2023/08/02 08:33:04;;;;;;;4.20;2.60;;;;;;;16.78;100.00;99029.38;5026216;28;20522;-69
2023/08/02 08:35:29;;;;;;;5.82;2.00;;;;;;;16.87;100.00;99033.22;5030255;28;20535;-70
2023/08/02 08:37:54;;;;;;;6.35;2.42;;;;;;;16.80;100.00;99029.16;5028637;28;20092;-69
2023/08/02 08:40:20;;;;;;;8.07;1.95;;;;;;;16.86;100.00;99029.03;5030405;28;20045;-70
2023/08/02 08:42:53;;;;;;;6.90;1.85;;;;;;;16.89;100.00;99022.50;5029603;28;20045;-69
2023/08/02 08:45:21;;;;;;;6.78;1.60;;;;;;;16.95;100.00;99018.13;5028860;28;20083;-71
2023/08/02 08:47:48;;;;;;;5.25;2.05;;;;;;;17.00;100.00;99016.38;5030841;28;20045;-70
2023/08/02 08:50:15;;;;;;;6.32;1.48;;;;;;;17.09;100.00;99016.78;5028410;28;20026;-70
2023/08/02 08:52:43;;;;;;;3.47;1.33;;;;;;;17.08;100.00;99008.13;5026200;28;20052;-69
2023/08/02 08:55:08;;;;;;;3.15;1.02;;;;;;;17.12;100.00;99003.19;5025678;28;20044;-71
2023/08/02 08:57:35;;;;;;;1.65;1.10;;;;;;;17.20;100.00;99002.78;5028674;28;20077;-74
2023/08/02 09:00:01;;;;;;;2.42;1.27;;;;;;;17.17;100.00;98998.00;5030016;28;20060;-70
2023/08/02 09:02:30;;;;;;;1.52;0.80;;;;;;;17.16;100.00;98990.41;5031079;28;20447;-70
2023/08/02 09:04:57;;;;;;;1.40;1.02;;;;;;;17.09;100.00;98988.75;5027575;28;20069;-71
2023/08/02 09:07:22;;;;;;;1.58;1.00;;;;;;;17.08;100.00;98992.41;5029249;28;20394;-71
2023/08/02 09:09:47;;;;;;;2.55;1.10;;;;;;;17.04;100.00;98993.91;5028780;28;20044;-70
2023/08/02 09:12:13;;;;;;;1.77;1.05;;;;;;;17.05;100.00;98989.50;5025620;28;20093;-70
2023/08/02 09:14:38;;;;;;;1.65;0.88;;;;;;;17.07;100.00;98987.41;5025012;28;20037;-69
2023/08/02 09:17:04;;;;;;;1.95;1.17;;;;;;;17.08;100.00;98975.91;5030228;28;20032;-71
2023/08/02 09:19:33;;;;;;;1.20;1.10;;;;;;;17.11;100.00;98978.03;5029875;28;20066;-71
2023/08/02 09:22:09;;;;;;;0.90;0.70;;;;;;;17.08;100.00;98968.84;5027840;28;21698;-70
2023/08/02 09:24:36;;;;;;;0.95;0.68;;;;;;;17.25;100.00;98955.72;5030322;28;20506;-71
2023/08/02 09:27:04;;;;;;;1.27;0.80;;;;;;;17.27;100.00;98956.25;5026764;28;20197;-71
2023/08/02 09:29:42;;;;;;;2.35;1.00;;;;;;;17.50;100.00;98946.53;5031780;28;20033;-70
2023/08/02 09:32:08;;;;;;;0.98;0.65;;;;;;;17.51;100.00;98948.09;5029018;28;20052;-69
2023/08/02 09:34:51;;;;;;;3.40;1.00;;;;;;;17.54;100.00;98955.50;5025114;28;20029;-70
2023/08/02 09:37:28;;;;;;;5.88;0.80;;;;;;;17.45;100.00;98942.03;5023121;28;20605;-70
2023/08/02 09:39:54;;;;;;;6.03;1.23;;;;;;;17.57;100.00;98939.25;5027145;28;20064;-70
2023/08/02 09:42:27;;;;;;;8.45;1.30;;;;;;;17.67;100.00;98935.97;5026863;28;20045;-70
2023/08/02 09:44:56;;;;;;;4.95;1.05;;;;;;;17.57;100.00;98941.09;5026186;28;20041;-70
2023/08/02 09:47:22;;;;;;;4.35;0.63;;;;;;;17.64;100.00;98946.94;5026675;28;20038;-70
2023/08/02 09:50:10;;;;;;;1.70;0.50;;;;;;;17.61;100.00;98942.19;5026255;28;20037;-70
2023/08/02 09:52:39;;;;;;;1.10;0.60;;;;;;;17.64;100.00;98947.72;5027645;28;20066;-70
2023/08/02 09:55:06;;;;;;;3.03;0.75;;;;;;;17.61;100.00;98945.59;5030929;28;20566;-70
2023/08/02 09:57:32;;;;;;;4.28;1.30;;;;;;;17.72;100.00;98941.25;5025331;28;20033;-70
2023/08/02 10:00:06;;;;;;;4.07;0.80;;;;;;;17.86;100.00;98931.97;5028756;28;20424;-69
2023/08/02 10:02:41;;;;;;;4.13;0.77;;;;;;;17.92;100.00;98919.69;5023686;28;20045;-71
2023/08/02 10:05:12;;;;;;;1.25;0.60;;;;;;;17.91;100.00;98928.59;5027382;28;20117;-70
2023/08/02 10:07:54;;;;;;;1.40;0.70;;;;;;;18.01;100.00;98925.28;5025500;28;20062;-70
2023/08/02 10:10:25;;;;;;;0.95;0.60;;;;;;;18.01;100.00;98914.81;5024227;28;20021;-70
2023/08/02 10:12:59;;;;;;;2.45;0.55;;;;;;;18.11;100.00;98921.94;5022726;28;20045;-71
2023/08/02 10:15:26;;;;;;;2.65;0.50;;;;;;;18.19;100.00;98921.47;5023738;28;20506;-71
2023/08/02 10:17:51;;;;;;;1.88;0.70;;;;;;;18.32;100.00;98915.78;5017923;28;20696;-71
2023/08/02 10:20:18;;;;;;;0.63;0.45;;;;;;;18.48;100.00;98903.59;5028239;28;20041;-70
2023/08/02 10:22:44;;;;;;;1.95;0.80;;;;;;;18.78;100.00;98902.13;5020343;28;20072;-69
2023/08/02 10:25:13;;;;;;;1.20;0.70;;;;;;;18.96;100.00;98906.19;5023460;28;20049;-68
2023/08/02 10:27:40;;;;;;;2.38;0.60;;;;;;;18.98;100.00;98883.88;5026360;28;20046;-71
2023/08/02 10:30:08;;;;;;;0.88;0.55;;;;;;;19.20;100.00;98872.41;5016535;28;20693;-69
2023/08/02 10:32:33;;;;;;;1.70;0.50;;;;;;;19.36;100.00;98857.44;5018032;28;20030;-69
2023/08/02 10:34:59;;;;;;;4.32;0.50;;;;;;;19.43;100.00;98850.09;5025652;28;20617;-68
2023/08/02 10:38:03;;;;;;;3.22;0.40;;;;;;;19.55;100.00;98841.94;5022006;28;20073;-67
2023/08/02 10:41:05;;;;;;;0.43;0.40;;;;;;;19.68;100.00;98836.16;5022164;28;20048;-68
2023/08/02 10:43:31;;;;;;;1.17;0.38;;;;;;;19.67;100.00;98846.97;5024636;28;20032;-69
2023/08/02 10:46:18;;;;;;;5.68;0.40;;;;;;;19.89;100.00;98838.81;5024501;28;20037;-68
2023/08/02 10:48:43;;;;;;;0.55;0.38;;;;;;;20.05;100.00;98836.97;5025023;28;20032;-68
2023/08/02 10:51:27;;;;;;;0.82;0.50;;;;;;;20.17;100.00;98824.31;5027563;28;20033;-69
2023/08/02 10:54:14;;;;;;;2.08;0.40;;;;;;;20.26;100.00;98820.06;5022567;28;20091;-68
2023/08/02 10:56:51;;;;;;;0.43;0.40;;;;;;;20.40;100.00;98813.19;5026428;28;20137;-70
2023/08/02 10:59:23;;;;;;;0.30;0.30;;;;;;;20.35;100.00;98815.06;5024132;28;20684;-69
2023/08/02 11:01:59;;;;;;;2.80;0.30;;;;;;;20.30;100.00;98794.03;5022063;28;20144;-70
2023/08/02 11:04:25;;;;;;;0.38;0.30;;;;;;;20.23;100.00;98795.09;5023113;28;20091;-68
2023/08/02 11:06:51;;;;;;;0.43;0.22;;;;;;;20.24;100.00;98793.25;5022235;28;20053;-69
2023/08/02 11:09:16;;;;;;;0.50;0.50;;;;;;;20.17;100.00;98792.75;5025374;28;20148;-69
2023/08/02 11:11:42;;;;;;;2.25;0.93;;;;;;;20.20;100.00;98790.38;5020226;28;20052;-69
2023/08/02 11:14:07;;;;;;;2.38;0.50;;;;;;;20.35;100.00;98773.72;5021001;28;20052;-70
2023/08/02 11:16:42;;;;;;;0.73;0.40;;;;;;;20.36;100.00;98764.00;5022253;28;20048;-70
2023/08/02 11:19:11;;;;;;;0.63;0.35;;;;;;;20.30;100.00;98752.69;5021441;28;20120;-69
2023/08/02 11:21:37;;;;;;;0.40;0.35;;;;;;;20.18;100.00;98737.22;5017865;28;20059;-70
2023/08/02 11:24:03;;;;;;;0.63;0.30;;;;;;;20.14;100.00;98759.88;5023772;28;20096;-69